MMVA/VSA METAR and TAF weather

Enter ICAO airport designator
Station Type Date Time Source
MMVA METAR 2019/12/13 02:45 UTC NOAA

MMVA 130245Z 00000KT 5SM SCT015 BKN070 BKN200 22/22 A3007 RMK SLP180 52014 954 8/128 HZY


Station Type Date Time Source
MMVA Decoded METAR 2019/12/13 02:45 UTC NOAA

Villahermosa , Mexico (MMVA) 18-00N 092-49W
Dec 12, 2019 - 09:45 PM EST / 2019.12.13 0245 UTC
Wind: Calm:0
Visibility: 5 mile(s):0
Sky conditions: mostly cloudy
Temperature: 71 F (22 C)
Dew Point: 71 F (22 C)
Relative Humidity: 100%
Pressure (altimeter): 30.07 in. Hg (1018 hPa)
Pressure tendency: 0.04 inches (1.4 hPa) higher than three hours ago
ob: MMVA 130245Z 00000KT 5SM SCT015 BKN070 BKN200 22/22 A3007 RMK SLP180 52014 954 8/128 HZY
cycle: 3

Station Type Date Time Source
MMVA TAF 2019/12/12 18:57 UTC NOAA

TAF MMVA 121650Z 1218/1318 25010KT 3SM HZ BKN010 OVC030
FM122200 26010KT 4SM HZ OVC020 PROB40 1306/1310 2SM -RA
FM131200 00000KT 1SM BR OVC003
FM131600 23010KT 3SM BR OVC015

Example: see airport list